Time;durP1;ratioP1;P1;durP2;ratioP2;P2;SDS_P1;SDS_P2;PMS_P1;PMS_P2;Temp;Humidity;BMP_temperature;BMP_pressure;BME280_temperature;BME280_humidity;BME280_pressure;Samples;Min_cycle;Max_cycle;Signal;HPM_P1;HPM_P2
2021/10/21 00:00:35;;;;;;;16.15;7.80;;;;;;;10.54;63.29;99221.39;1674373;84;20931;-66
2021/10/21 00:03:01;;;;;;;18.37;8.43;;;;;;;10.52;63.34;99218.97;1678997;84;20950;-66
2021/10/21 00:05:30;;;;;;;16.00;8.03;;;;;;;10.50;63.39;99223.98;1704171;83;21505;-66
2021/10/21 00:07:58;;;;;;;22.05;8.75;;;;;;;10.49;63.47;99217.44;1704231;84;21154;-65
2021/10/21 00:10:24;;;;;;;18.67;7.83;;;;;;;10.45;63.63;99211.79;1704152;84;20843;-67
2021/10/21 00:12:51;;;;;;;16.70;8.30;;;;;;;10.42;63.74;99206.94;1704101;84;21001;-66
2021/10/21 00:15:17;;;;;;;16.50;8.83;;;;;;;10.40;63.81;99213.91;1704093;84;21024;-66
2021/10/21 00:17:44;;;;;;;16.48;7.90;;;;;;;10.37;63.88;99209.88;1704199;84;20890;-68
2021/10/21 00:20:11;;;;;;;23.02;8.65;;;;;;;10.34;64.11;99210.52;1704064;82;23285;-68
2021/10/21 00:22:38;;;;;;;19.70;8.30;;;;;;;10.30;64.13;99208.18;1704227;83;21014;-69
2021/10/21 00:25:07;;;;;;;20.48;8.08;;;;;;;10.27;64.28;99206.64;1703999;82;20954;-69
2021/10/21 00:27:34;;;;;;;16.60;7.92;;;;;;;10.19;64.57;99208.22;1704134;84;20926;-68
2021/10/21 00:30:01;;;;;;;14.60;7.90;;;;;;;10.14;64.74;99200.95;1704171;84;21006;-68
2021/10/21 00:32:29;;;;;;;22.05;8.50;;;;;;;10.09;64.96;99201.67;1704044;84;21508;-67
2021/10/21 00:34:56;;;;;;;15.90;8.73;;;;;;;10.03;65.10;99191.41;1703980;84;20898;-67
2021/10/21 00:37:22;;;;;;;15.90;8.33;;;;;;;9.99;65.27;99192.37;1704038;84;21450;-67
2021/10/21 00:39:48;;;;;;;16.07;7.95;;;;;;;9.93;65.55;99195.27;1704007;84;20981;-67
2021/10/21 00:42:15;;;;;;;13.72;7.67;;;;;;;9.87;65.82;99185.58;1704276;84;20970;-67
2021/10/21 00:44:42;;;;;;;14.75;8.98;;;;;;;9.83;65.99;99187.34;1704044;84;21811;-67
2021/10/21 00:47:10;;;;;;;15.10;7.87;;;;;;;9.82;66.08;99189.06;1704076;84;20941;-67
2021/10/21 00:49:36;;;;;;;17.57;9.20;;;;;;;9.79;66.33;99185.03;1704051;84;20982;-66
2021/10/21 00:52:04;;;;;;;14.40;8.05;;;;;;;9.76;66.40;99171.15;1704023;84;20962;-67
2021/10/21 00:54:31;;;;;;;21.45;8.73;;;;;;;9.73;66.60;99178.64;1704248;82;21030;-66
2021/10/21 00:56:57;;;;;;;19.80;9.65;;;;;;;9.70;66.75;99177.34;1676140;84;21136;-66
2021/10/21 00:59:25;;;;;;;18.10;10.70;;;;;;;9.67;66.93;99170.32;1704160;84;21438;-66
2021/10/21 01:01:51;;;;;;;16.30;9.45;;;;;;;9.64;67.03;99169.02;1704245;84;21477;-66
2021/10/21 01:04:18;;;;;;;23.65;11.60;;;;;;;9.59;67.18;99163.13;1703871;83;21524;-66
2021/10/21 01:06:45;;;;;;;22.45;10.08;;;;;;;9.58;67.41;99159.33;1704097;84;20886;-67
2021/10/21 01:09:13;;;;;;;17.98;10.10;;;;;;;9.55;67.52;99154.48;1680756;84;20926;-67
2021/10/21 01:11:41;;;;;;;17.82;8.78;;;;;;;9.54;67.56;99157.79;1704069;84;20961;-66
2021/10/21 01:14:09;;;;;;;15.78;8.78;;;;;;;9.52;67.62;99157.86;1704072;84;21539;-66
2021/10/21 01:16:39;;;;;;;15.78;9.40;;;;;;;9.50;67.77;99154.63;1704176;83;20910;-66
2021/10/21 01:19:22;;;;;;;18.37;8.83;;;;;;;9.47;67.89;99149.23;1704341;84;21445;-67
2021/10/21 01:21:54;;;;;;;17.73;9.35;;;;;;;9.46;67.95;99146.80;1704083;84;20862;-68
2021/10/21 01:24:21;;;;;;;15.93;8.58;;;;;;;9.42;67.95;99141.16;1704074;84;21005;-68
2021/10/21 01:26:50;;;;;;;15.65;8.95;;;;;;;9.39;68.09;99134.94;1704020;84;21025;-68
2021/10/21 01:29:18;;;;;;;16.23;9.40;;;;;;;9.35;68.36;99132.59;1704294;84;20913;-67
2021/10/21 01:31:46;;;;;;;23.12;10.58;;;;;;;9.31;68.65;99128.87;1703853;83;20854;-68
2021/10/21 01:34:14;;;;;;;17.02;9.18;;;;;;;9.29;68.60;99131.12;1703985;84;21556;-67
2021/10/21 01:36:41;;;;;;;19.37;10.03;;;;;;;9.26;68.91;99131.19;1704040;84;20977;-66
2021/10/21 01:39:10;;;;;;;24.18;10.55;;;;;;;9.25;68.89;99126.02;1704231;84;20985;-66
2021/10/21 01:41:37;;;;;;;15.50;9.70;;;;;;;9.23;69.10;99125.00;1704115;84;20902;-66
2021/10/21 01:44:05;;;;;;;18.77;10.15;;;;;;;9.22;69.26;99121.21;1704136;84;20897;-66
2021/10/21 01:46:32;;;;;;;20.08;9.13;;;;;;;9.20;69.35;99116.61;1703999;84;21133;-66
2021/10/21 01:48:59;;;;;;;16.40;8.63;;;;;;;9.19;69.44;99114.44;1704172;84;20945;-66
2021/10/21 01:51:26;;;;;;;17.10;9.70;;;;;;;9.19;69.51;99108.95;1704162;84;20862;-67
2021/10/21 01:53:53;;;;;;;18.77;10.32;;;;;;;9.20;69.62;99110.58;1703994;84;20954;-69
2021/10/21 01:56:19;;;;;;;18.00;10.53;;;;;;;9.18;69.68;99106.53;1704386;84;20953;-69
2021/10/21 01:58:45;;;;;;;19.00;10.35;;;;;;;9.18;69.76;99121.59;1704082;83;21217;-70
2021/10/21 02:01:12;;;;;;;17.92;9.53;;;;;;;9.16;69.81;99106.05;1703919;84;20945;-69
2021/10/21 02:03:39;;;;;;;24.30;10.93;;;;;;;9.13;69.96;99104.75;1703949;83;21513;-69
2021/10/21 02:06:06;;;;;;;24.50;10.63;;;;;;;9.12;70.10;99111.91;1703969;84;20906;-69
2021/10/21 02:08:32;;;;;;;18.98;10.98;;;;;;;9.09;70.21;99104.33;1704048;84;20926;-69
2021/10/21 02:10:59;;;;;;;22.65;11.28;;;;;;;9.07;70.26;99110.13;1703998;84;21087;-69
2021/10/21 02:13:26;;;;;;;26.77;10.63;;;;;;;9.05;70.33;99097.31;1703933;84;20858;-69
2021/10/21 02:15:52;;;;;;;19.48;10.08;;;;;;;9.03;70.50;99102.29;1715294;82;21107;-70
2021/10/21 02:18:21;;;;;;;23.67;10.50;;;;;;;9.00;70.59;99098.81;1717106;82;20967;-69
2021/10/21 02:20:48;;;;;;;17.52;10.55;;;;;;;8.99;70.69;99099.13;1719959;82;21043;-70
2021/10/21 02:23:14;;;;;;;16.42;8.80;;;;;;;8.94;70.88;99089.94;1704699;82;23341;-69
2021/10/21 02:25:42;;;;;;;20.35;10.53;;;;;;;8.93;71.18;99088.31;1699568;84;21543;-69
2021/10/21 02:28:09;;;;;;;18.67;9.93;;;;;;;8.90;71.39;99086.77;1699469;84;21008;-69
2021/10/21 02:30:37;;;;;;;17.30;9.98;;;;;;;8.89;71.53;99084.59;1699494;84;20973;-69
2021/10/21 02:33:03;;;;;;;18.60;10.50;;;;;;;8.88;71.70;99085.72;1699500;84;21476;-69
2021/10/21 02:35:30;;;;;;;19.20;10.78;;;;;;;8.88;71.78;99093.13;1725816;82;21137;-69
2021/10/21 02:37:57;;;;;;;23.38;11.08;;;;;;;8.87;71.79;99093.69;1737651;82;20920;-68
2021/10/21 02:40:24;;;;;;;19.00;10.03;;;;;;;8.86;71.92;99087.16;1710669;82;20939;-68
2021/10/21 02:42:52;;;;;;;24.40;11.43;;;;;;;8.83;72.06;99086.42;1737740;82;20940;-69
2021/10/21 02:45:18;;;;;;;18.82;10.43;;;;;;;8.82;72.16;99076.59;1737909;82;20977;-68
2021/10/21 02:47:45;;;;;;;20.60;10.00;;;;;;;8.81;72.45;99084.56;1737943;82;21177;-68
2021/10/21 02:50:12;;;;;;;21.48;11.05;;;;;;;8.79;72.36;99081.33;1737711;81;20992;-68
2021/10/21 02:52:39;;;;;;;24.65;11.18;;;;;;;8.77;72.42;99078.91;1737678;82;20968;-68
2021/10/21 02:55:07;;;;;;;20.88;10.58;;;;;;;8.74;72.68;99080.09;1737588;82;20896;-68
2021/10/21 02:57:34;;;;;;;17.12;10.48;;;;;;;8.72;72.84;99079.04;1738054;82;21582;-68
2021/10/21 03:00:00;;;;;;;20.30;11.53;;;;;;;8.70;72.98;99079.11;1737795;82;21133;-68
2021/10/21 03:02:27;;;;;;;20.68;11.63;;;;;;;8.69;73.07;99074.76;1737723;82;21435;-68
2021/10/21 03:04:53;;;;;;;22.60;10.30;;;;;;;8.67;73.13;99077.80;1730268;81;20920;-68
2021/10/21 03:07:20;;;;;;;17.85;10.50;;;;;;;8.66;73.45;99073.48;1726978;83;20996;-68
2021/10/21 03:09:46;;;;;;;24.55;11.20;;;;;;;8.64;73.46;99070.26;1727070;83;20945;-68
2021/10/21 03:12:14;;;;;;;18.95;10.88;;;;;;;8.63;73.45;99066.47;1726959;81;22335;-68
2021/10/21 03:14:41;;;;;;;16.40;10.25;;;;;;;8.59;73.67;99068.46;1726985;81;20988;-68
2021/10/21 03:17:07;;;;;;;21.05;12.53;;;;;;;8.57;73.87;99059.77;1726965;83;21020;-68
2021/10/21 03:19:34;;;;;;;23.30;11.78;;;;;;;8.56;73.97;99054.05;1727150;82;20913;-68
2021/10/21 03:22:01;;;;;;;23.20;11.18;;;;;;;8.53;74.08;99057.97;1727190;83;21543;-66
2021/10/21 03:24:30;;;;;;;19.82;12.13;;;;;;;8.52;74.14;99054.98;1726968;83;20964;-66
2021/10/21 03:26:56;;;;;;;18.95;11.40;;;;;;;8.50;74.23;99052.56;1726885;83;20897;-66
2021/10/21 03:29:23;;;;;;;17.17;10.00;;;;;;;8.48;74.34;99047.97;1727241;81;21400;-66
2021/10/21 03:31:50;;;;;;;21.33;11.12;;;;;;;8.47;74.49;99049.64;1727045;83;21001;-66
2021/10/21 03:34:16;;;;;;;26.07;12.80;;;;;;;8.44;74.56;99044.23;1726979;83;20897;-66
2021/10/21 03:36:43;;;;;;;25.05;11.95;;;;;;;8.42;74.65;99045.67;1727020;83;21149;-67
2021/10/21 03:39:11;;;;;;;20.65;12.13;;;;;;;8.40;74.68;99039.15;1726909;82;20977;-67
2021/10/21 03:41:38;;;;;;;20.25;12.20;;;;;;;8.39;74.72;99040.83;1727139;83;21507;-67
2021/10/21 03:44:05;;;;;;;24.52;12.60;;;;;;;8.37;74.79;99031.57;1727030;83;20944;-65
2021/10/21 03:46:32;;;;;;;22.35;12.82;;;;;;;8.36;75.00;99029.15;1726991;83;20945;-66
2021/10/21 03:49:00;;;;;;;27.20;12.28;;;;;;;8.38;75.06;99024.17;1727053;83;21229;-66
2021/10/21 03:51:26;;;;;;;22.20;11.38;;;;;;;8.38;75.10;99015.41;1712752;83;20999;-67
2021/10/21 03:53:53;;;;;;;20.15;12.35;;;;;;;8.40;75.25;99016.46;1699603;84;21509;-66
2021/10/21 03:56:21;;;;;;;26.70;13.65;;;;;;;8.39;75.15;99008.81;1700184;84;20922;-66
2021/10/21 03:58:47;;;;;;;23.30;11.70;;;;;;;8.38;75.08;99014.04;1700318;84;21429;-66
2021/10/21 04:01:14;;;;;;;26.95;12.82;;;;;;;8.37;75.13;99012.42;1699404;83;21120;-68
2021/10/21 04:03:41;;;;;;;24.27;12.65;;;;;;;8.35;75.18;99009.20;1700251;83;21592;-68
2021/10/21 04:06:08;;;;;;;19.17;12.90;;;;;;;8.35;75.35;99012.49;1705400;82;20977;-70
2021/10/21 04:08:34;;;;;;;21.62;12.58;;;;;;;8.35;75.42;99016.03;1704911;84;21009;-68
2021/10/21 04:11:01;;;;;;;23.85;11.53;;;;;;;8.34;75.31;99008.95;1706531;82;21488;-72
2021/10/21 04:13:28;;;;;;;28.57;12.85;;;;;;;8.32;75.43;99003.52;1695930;84;21202;-68
2021/10/21 04:15:54;;;;;;;22.35;13.10;;;;;;;8.28;75.71;99001.41;1704346;84;21051;-68
2021/10/21 04:18:22;;;;;;;18.95;12.78;;;;;;;8.27;75.72;99001.72;1703649;84;20934;-68
2021/10/21 04:20:49;;;;;;;28.30;13.75;;;;;;;8.25;76.11;99002.03;1704159;84;21000;-67
2021/10/21 04:23:16;;;;;;;57.62;29.05;;;;;;;8.23;75.97;98995.27;1705554;84;20929;-67
2021/10/21 04:25:44;;;;;;;27.27;13.78;;;;;;;8.20;76.07;98991.79;1705514;83;21159;-68
2021/10/21 04:28:11;;;;;;;26.25;14.13;;;;;;;8.18;76.13;98989.92;1705303;83;20987;-68
2021/10/21 04:30:37;;;;;;;29.60;15.98;;;;;;;8.16;76.27;98995.70;1705541;83;21543;-67
2021/10/21 04:33:04;;;;;;;21.40;12.60;;;;;;;8.15;76.32;99002.30;1725205;82;20997;-69
2021/10/21 04:35:31;;;;;;;25.40;13.65;;;;;;;8.13;76.37;98997.70;1734706;82;21591;-71
2021/10/21 04:37:57;;;;;;;22.77;13.20;;;;;;;8.12;76.71;98996.64;1734871;81;21140;-71
2021/10/21 04:40:24;;;;;;;23.60;13.70;;;;;;;8.12;76.74;98987.08;1734929;82;20926;-70
2021/10/21 04:42:50;;;;;;;28.60;14.40;;;;;;;8.11;76.75;98983.53;1734987;82;20977;-72
2021/10/21 04:45:17;;;;;;;27.25;14.55;;;;;;;8.11;77.00;98984.09;1734896;82;20902;-71
2021/10/21 04:47:43;;;;;;;26.77;14.80;;;;;;;8.11;76.92;98989.56;1734976;82;20898;-72
2021/10/21 04:50:10;;;;;;;26.05;14.23;;;;;;;8.09;77.87;98991.80;1734974;82;21212;-72
2021/10/21 04:52:37;;;;;;;24.77;14.13;;;;;;;8.08;77.57;98992.95;1734967;81;20934;-71
2021/10/21 04:55:07;;;;;;;28.02;16.48;;;;;;;8.07;77.29;98988.60;1735137;82;20870;-72
2021/10/21 04:57:34;;;;;;;29.20;15.48;;;;;;;8.05;77.24;98984.01;1706046;82;21021;-73
2021/10/21 05:00:02;;;;;;;35.70;16.70;;;;;;;8.03;77.23;98978.86;1706046;82;21515;-72
2021/10/21 05:02:29;;;;;;;22.50;13.45;;;;;;;8.04;77.25;98987.86;1734883;82;21053;-73
2021/10/21 05:04:56;;;;;;;26.30;15.45;;;;;;;8.04;77.27;98986.50;1735977;81;21032;-73
2021/10/21 05:07:23;;;;;;;42.05;22.13;;;;;;;8.05;77.32;98988.92;1737765;81;20897;-72
2021/10/21 05:09:50;;;;;;;31.17;16.37;;;;;;;8.05;77.33;98976.61;1738122;82;21521;-71
2021/10/21 05:12:19;;;;;;;30.55;15.28;;;;;;;8.06;77.52;98993.83;1710949;81;21136;-71
2021/10/21 05:14:47;;;;;;;29.15;15.55;;;;;;;8.08;77.73;98982.02;1710722;82;21138;-72
2021/10/21 05:17:14;;;;;;;40.08;19.00;;;;;;;8.09;77.99;98984.97;1710505;82;21001;-72
2021/10/21 05:19:43;;;;;;;36.30;18.52;;;;;;;8.10;77.71;98976.45;1710959;82;20898;-72
2021/10/21 05:22:10;;;;;;;31.35;17.45;;;;;;;8.11;77.63;98972.60;1737802;82;20910;-70
2021/10/21 05:24:37;;;;;;;41.23;16.27;;;;;;;8.14;77.64;98979.37;1710756;82;20886;-70
2021/10/21 05:27:05;;;;;;;28.42;16.30;;;;;;;8.16;77.51;98984.77;1710660;82;21539;-70
2021/10/21 05:29:33;;;;;;;31.95;16.97;;;;;;;8.19;77.53;98980.61;1737677;81;20999;-71
2021/10/21 05:32:07;;;;;;;30.10;16.97;;;;;;;8.23;77.38;98981.59;1737899;82;21512;-70
2021/10/21 05:34:33;;;;;;;26.60;15.53;;;;;;;8.26;77.36;98975.50;1737607;82;21060;-71
2021/10/21 05:37:01;;;;;;;27.42;17.12;;;;;;;8.33;77.20;98984.65;1737815;82;20941;-70
2021/10/21 05:39:30;;;;;;;27.50;15.72;;;;;;;8.37;77.10;98989.17;1737776;82;21199;-70
2021/10/21 05:41:58;;;;;;;34.18;18.20;;;;;;;8.41;77.06;98988.80;1737690;82;20881;-69
2021/10/21 05:44:26;;;;;;;28.60;15.83;;;;;;;8.47;77.11;98992.20;1737813;81;20846;-69
2021/10/21 05:46:53;;;;;;;25.30;15.38;;;;;;;8.51;76.74;98984.98;1710804;82;20962;-69
2021/10/21 05:49:22;;;;;;;33.60;16.73;;;;;;;8.55;76.56;98987.33;1737991;82;20898;-69
2021/10/21 05:51:49;;;;;;;27.82;16.35;;;;;;;8.60;76.49;98986.63;1737792;82;21134;-69
2021/10/21 05:54:17;;;;;;;29.12;16.65;;;;;;;8.66;76.13;98983.19;1737735;82;20890;-69
2021/10/21 05:56:45;;;;;;;34.00;18.82;;;;;;;8.69;75.84;98974.88;1737721;82;20925;-69
2021/10/21 05:59:12;;;;;;;36.13;17.32;;;;;;;8.73;75.79;98978.03;1710483;82;21940;-69
2021/10/21 06:01:40;;;;;;;34.33;16.80;;;;;;;8.78;75.97;98975.72;1737788;82;20956;-70
2021/10/21 06:04:08;;;;;;;29.30;16.12;;;;;;;8.81;75.69;98977.81;1737943;81;21249;-70
2021/10/21 06:06:38;;;;;;;33.58;16.48;;;;;;;8.87;75.30;98966.41;1737747;81;20918;-69
2021/10/21 06:09:05;;;;;;;35.75;19.02;;;;;;;8.89;75.14;98972.37;1711063;81;21008;-69
2021/10/21 06:11:35;;;;;;;27.60;16.52;;;;;;;8.93;74.93;98968.44;1737833;81;20897;-69
2021/10/21 06:14:02;;;;;;;29.82;15.63;;;;;;;8.99;74.95;98960.31;1710631;82;21503;-67
2021/10/21 06:16:30;;;;;;;28.15;16.93;;;;;;;9.06;74.73;98968.86;1737701;82;21130;-68
2021/10/21 06:18:57;;;;;;;28.70;15.83;;;;;;;9.13;74.46;98963.72;1737810;81;20881;-67
2021/10/21 06:21:25;;;;;;;26.20;15.90;;;;;;;9.21;74.06;98968.41;1710397;81;21016;-68
2021/10/21 06:23:52;;;;;;;31.23;14.23;;;;;;;9.31;74.20;98963.71;1737875;82;20966;-68
2021/10/21 06:26:19;;;;;;;25.92;14.45;;;;;;;9.42;73.53;98955.42;1737790;82;20945;-68
2021/10/21 06:28:51;;;;;;;21.75;13.38;;;;;;;9.55;73.25;98948.41;1737760;82;21525;-68
2021/10/21 06:31:20;;;;;;;24.35;14.60;;;;;;;9.79;72.31;98956.70;1737730;82;20857;-69
2021/10/21 06:33:47;;;;;;;24.18;14.03;;;;;;;10.02;71.89;98954.53;1725189;82;20898;-69
2021/10/21 06:36:14;;;;;;;21.10;12.63;;;;;;;10.23;70.37;98942.56;1707713;82;21012;-69
2021/10/21 06:38:41;;;;;;;20.20;13.43;;;;;;;10.48;69.56;98946.32;1708255;84;20993;-68
2021/10/21 06:41:07;;;;;;;23.92;12.53;;;;;;;10.69;68.49;98942.27;1706932;84;22125;-68
2021/10/21 06:43:34;;;;;;;26.85;13.70;;;;;;;10.88;68.15;98948.14;1706687;84;20921;-68
2021/10/21 06:46:00;;;;;;;20.82;12.50;;;;;;;11.06;66.99;98946.63;1706774;84;20906;-68
2021/10/21 06:48:30;;;;;;;24.30;12.43;;;;;;;11.14;66.07;98938.34;1706734;84;20917;-68
2021/10/21 06:50:57;;;;;;;21.02;12.65;;;;;;;11.21;66.27;98941.93;1707893;84;20936;-68
2021/10/21 06:53:23;;;;;;;20.00;12.82;;;;;;;11.31;65.52;98937.98;1708610;84;21445;-68
2021/10/21 06:55:50;;;;;;;22.90;13.32;;;;;;;11.39;65.14;98934.36;1708239;82;20949;-68
2021/10/21 06:58:18;;;;;;;19.52;13.38;;;;;;;11.49;64.84;98941.63;1707766;82;20897;-68
2021/10/21 07:00:48;;;;;;;21.55;13.05;;;;;;;11.67;64.35;98940.88;1682126;84;20953;-68
2021/10/21 07:03:15;;;;;;;23.10;12.20;;;;;;;11.92;64.20;98944.56;1708134;84;21007;-68
2021/10/21 07:05:43;;;;;;;21.02;12.43;;;;;;;12.18;62.73;98933.25;1706687;83;21017;-68
2021/10/21 07:08:11;;;;;;;22.10;12.63;;;;;;;12.42;61.59;98941.55;1705398;84;20988;-68
2021/10/21 07:10:39;;;;;;;17.30;12.13;;;;;;;12.59;60.69;98937.78;1705465;84;21497;-68
2021/10/21 07:13:06;;;;;;;48.42;27.58;;;;;;;12.74;59.99;98936.27;1705431;82;21501;-68
2021/10/21 07:15:34;;;;;;;19.32;12.45;;;;;;;12.93;60.42;98932.36;1705419;84;20901;-68
2021/10/21 07:18:01;;;;;;;20.43;12.03;;;;;;;13.26;58.81;98927.29;1705544;84;21465;-68
2021/10/21 07:20:28;;;;;;;32.40;15.75;;;;;;;13.36;58.39;98922.64;1705379;84;21028;-68
2021/10/21 07:22:55;;;;;;;18.75;12.93;;;;;;;13.37;58.03;98915.40;1705596;84;20937;-68
2021/10/21 07:25:23;;;;;;;21.05;12.28;;;;;;;13.25;57.75;98925.69;1705228;82;21566;-68
2021/10/21 07:27:50;;;;;;;22.52;12.45;;;;;;;13.09;58.33;98913.17;1704404;84;20981;-67
2021/10/21 07:30:16;;;;;;;18.70;12.15;;;;;;;13.01;58.22;98916.28;1704410;84;21973;-68
2021/10/21 07:32:43;;;;;;;26.48;13.93;;;;;;;12.99;58.74;98901.24;1703961;84;21444;-67
2021/10/21 07:35:10;;;;;;;24.92;13.22;;;;;;;13.01;58.37;98900.33;1704225;84;21026;-69
2021/10/21 07:37:37;;;;;;;23.27;12.73;;;;;;;13.00;58.43;98891.83;1703968;84;20914;-66
2021/10/21 07:40:07;;;;;;;21.52;13.45;;;;;;;12.95;58.20;98899.76;1703983;84;20974;-66
2021/10/21 07:42:35;;;;;;;23.70;13.60;;;;;;;12.87;58.88;98896.55;1689015;84;21151;-68
2021/10/21 07:45:01;;;;;;;21.65;12.82;;;;;;;12.83;58.67;98898.39;1677028;85;20913;-68
2021/10/21 07:47:28;;;;;;;24.05;13.00;;;;;;;12.85;58.38;98900.23;1676444;84;20952;-67
2021/10/21 07:49:55;;;;;;;31.00;12.55;;;;;;;12.86;58.36;98904.02;1677044;85;20965;-67
2021/10/21 07:52:26;;;;;;;17.37;11.88;;;;;;;12.88;58.60;98907.23;1677060;85;21000;-71
2021/10/21 07:54:53;;;;;;;19.90;11.80;;;;;;;12.99;58.58;98894.36;1677360;85;21433;-67
2021/10/21 07:57:20;;;;;;;24.82;14.10;;;;;;;13.11;58.22;98891.00;1677701;84;20957;-67
2021/10/21 07:59:47;;;;;;;21.00;12.00;;;;;;;13.33;57.73;98887.50;1677141;85;20941;-75
2021/10/21 08:02:16;;;;;;;20.23;12.23;;;;;;;13.53;56.89;98882.38;1701533;84;20953;-66
2021/10/21 08:04:43;;;;;;;22.62;12.20;;;;;;;13.61;56.70;98882.80;1705650;84;20934;-68
2021/10/21 08:07:11;;;;;;;26.50;11.90;;;;;;;13.73;56.29;98885.50;1705432;84;21107;-69
2021/10/21 08:09:37;;;;;;;20.97;11.95;;;;;;;14.05;56.10;98884.16;1705285;84;20902;-70
2021/10/21 08:12:07;;;;;;;19.55;11.75;;;;;;;14.35;55.03;98882.57;1705051;84;21009;-67
2021/10/21 08:14:34;;;;;;;18.32;12.55;;;;;;;14.45;54.49;98881.23;1705025;84;20946;-67
2021/10/21 08:17:03;;;;;;;19.73;13.03;;;;;;;14.45;53.96;98867.42;1718683;82;20854;-67
2021/10/21 08:19:31;;;;;;;23.05;13.10;;;;;;;14.44;54.00;98864.47;1725954;82;21171;-68
2021/10/21 08:21:58;;;;;;;27.85;13.30;;;;;;;14.50;54.21;98862.43;1704794;84;21365;-68
2021/10/21 08:24:25;;;;;;;21.95;12.95;;;;;;;14.81;54.07;98855.25;1721396;82;20901;-67
2021/10/21 08:26:53;;;;;;;22.73;14.75;;;;;;;15.28;52.73;98850.13;1709344;82;20929;-69
2021/10/21 08:29:22;;;;;;;20.27;13.65;;;;;;;15.75;52.32;98845.73;1704099;84;21000;-68
2021/10/21 08:31:55;;;;;;;28.47;15.72;;;;;;;16.34;50.37;98850.70;1704128;84;21177;-68
2021/10/21 08:34:22;;;;;;;24.75;12.98;;;;;;;16.67;48.75;98851.46;1704306;84;20906;-68
2021/10/21 08:36:50;;;;;;;22.40;13.15;;;;;;;16.79;48.23;98848.45;1703905;84;20993;-68
2021/10/21 08:39:17;;;;;;;21.23;13.60;;;;;;;17.01;47.68;98845.98;1704386;84;21512;-68
2021/10/21 08:41:46;;;;;;;17.10;10.85;;;;;;;17.32;47.29;98845.61;1704166;84;20954;-68
2021/10/21 08:44:13;;;;;;;23.87;12.65;;;;;;;17.69;46.49;98829.59;1704070;83;21224;-70
2021/10/21 08:46:40;;;;;;;17.25;10.53;;;;;;;17.95;44.88;98821.10;1721749;82;20993;-68
2021/10/21 08:49:07;;;;;;;15.48;9.88;;;;;;;17.97;44.85;98822.11;1712330;82;20925;-68
2021/10/21 08:51:34;;;;;;;24.37;12.35;;;;;;;17.93;44.21;98822.66;1721181;82;20910;-67
2021/10/21 08:54:03;;;;;;;19.77;10.58;;;;;;;17.75;44.72;98813.59;1735199;82;20922;-67
2021/10/21 08:56:32;;;;;;;15.45;10.40;;;;;;;17.67;44.97;98809.15;1687481;84;21211;-68
2021/10/21 08:59:00;;;;;;;16.35;10.45;;;;;;;17.53;44.82;98807.58;1704626;83;21077;-68
2021/10/21 09:02:13;;;;;;;15.72;10.43;;;;;;;17.24;44.85;98816.77;1704047;84;20906;-68
2021/10/21 09:09:28;;;;;;;22.80;10.48;;;;;;;16.67;46.86;98799.40;1678929;85;21448;-68
2021/10/21 09:12:08;;;;;;;15.53;8.93;;;;;;;16.89;46.78;98797.11;1680014;85;20954;-68
2021/10/21 09:14:42;;;;;;;20.73;10.53;;;;;;;17.25;46.12;98792.02;1680212;84;21151;-68
2021/10/21 09:17:11;;;;;;;14.47;10.10;;;;;;;17.57;44.41;98777.89;1680097;85;21044;-68
2021/10/21 09:19:39;;;;;;;15.68;9.25;;;;;;;17.83;44.40;98781.16;1679882;85;20949;-68
2021/10/21 09:22:21;;;;;;;17.30;9.45;;;;;;;18.19;43.31;98765.56;1680259;85;21181;-68
2021/10/21 09:24:49;;;;;;;17.85;9.40;;;;;;;18.62;42.64;98768.05;1680851;84;21108;-70
2021/10/21 09:27:18;;;;;;;16.52;9.65;;;;;;;19.02;41.07;98752.38;1708562;84;21498;-68
2021/10/21 09:29:51;;;;;;;16.50;10.78;;;;;;;19.17;41.02;98751.81;1708323;84;20940;-68
2021/10/21 09:32:24;;;;;;;15.88;10.80;;;;;;;19.14;40.71;98745.84;1708642;84;20964;-68
2021/10/21 09:34:59;;;;;;;21.15;9.90;;;;;;;18.90;41.11;98750.73;1681856;84;39442;-69
2021/10/21 09:37:42;;;;;;;16.87;10.32;;;;;;;18.88;41.41;98752.31;1710719;82;20972;-68
2021/10/21 09:40:13;;;;;;;20.90;10.75;;;;;;;19.04;40.77;98738.88;1707645;84;20980;-68
2021/10/21 09:42:46;;;;;;;14.65;9.98;;;;;;;19.20;40.77;98730.16;1705249;84;20941;-68
2021/10/21 09:45:21;;;;;;;19.57;11.18;;;;;;;19.30;40.22;98736.35;1682168;84;20934;-67
2021/10/21 09:48:00;;;;;;;18.73;11.55;;;;;;;19.21;40.47;98729.77;1707671;84;21411;-67
2021/10/21 09:50:40;;;;;;;19.62;11.22;;;;;;;19.11;40.50;98732.72;1707793;82;20937;-68
2021/10/21 09:53:18;;;;;;;46.20;16.25;;;;;;;19.00;41.10;98733.30;1709059;84;20940;-71
2021/10/21 09:56:02;;;;;;;36.50;15.10;;;;;;;18.93;41.86;98732.47;1708259;84;20866;-69
2021/10/21 09:58:41;;;;;;;25.57;13.83;;;;;;;19.00;42.27;98719.98;1708459;84;20905;-68
2021/10/21 10:01:12;;;;;;;28.55;13.75;;;;;;;19.07;41.98;98721.37;1708307;84;21168;-68
2021/10/21 10:03:44;;;;;;;26.48;12.37;;;;;;;19.29;41.19;98720.25;1708636;84;20983;-68
2021/10/21 10:06:16;;;;;;;19.70;10.78;;;;;;;19.34;41.48;98712.11;1707351;83;20933;-69
2021/10/21 10:08:45;;;;;;;24.20;12.43;;;;;;;19.40;40.74;98716.10;1705185;84;20996;-69
2021/10/21 10:11:21;;;;;;;15.60;10.75;;;;;;;19.49;40.32;98690.67;1704471;84;20937;-67
2021/10/21 10:13:53;;;;;;;17.95;11.30;;;;;;;19.48;40.05;98680.13;1704920;82;20991;-68
2021/10/21 10:16:21;;;;;;;17.85;11.33;;;;;;;19.48;40.04;98681.52;1704770;84;21647;-67
2021/10/21 10:18:48;;;;;;;22.10;13.00;;;;;;;19.50;40.52;98679.73;1704912;84;21101;-73
2021/10/21 10:21:25;;;;;;;19.70;11.68;;;;;;;19.52;40.15;98673.20;1704875;84;21013;-73
2021/10/21 10:23:57;;;;;;;21.17;11.53;;;;;;;19.42;40.22;98660.84;1704344;82;21061;-68
2021/10/21 10:26:50;;;;;;;18.62;11.35;;;;;;;19.17;40.53;98665.56;1703551;84;21805;-69
2021/10/21 10:29:18;;;;;;;18.70;11.68;;;;;;;18.82;41.29;98668.47;1704753;84;21705;-69
2021/10/21 10:31:55;;;;;;;16.60;10.50;;;;;;;18.55;41.99;98665.73;1704850;82;21508;-70
2021/10/21 10:34:40;;;;;;;21.27;11.12;;;;;;;18.38;41.99;98663.90;1704663;83;21122;-67
2021/10/21 10:37:22;;;;;;;25.50;11.60;;;;;;;18.33;42.38;98659.30;1705696;82;20898;-71
2021/10/21 10:39:56;;;;;;;25.23;11.55;;;;;;;18.22;42.26;98655.08;1701088;82;21157;-69
2021/10/21 10:42:35;;;;;;;16.95;10.60;;;;;;;18.29;42.47;98659.28;1703731;82;21135;-69
2021/10/21 10:45:06;;;;;;;25.37;11.73;;;;;;;18.53;41.96;98647.27;1648570;85;21052;-69
2021/10/21 10:47:48;;;;;;;19.20;10.55;;;;;;;18.61;42.35;98644.16;1698724;84;21064;-69
2021/10/21 10:50:29;;;;;;;23.77;11.22;;;;;;;18.92;42.15;98642.68;1704519;84;21067;-68
2021/10/21 10:53:00;;;;;;;20.80;10.28;;;;;;;19.17;40.91;98640.53;1693736;84;21171;-68
2021/10/21 10:55:44;;;;;;;22.50;11.48;;;;;;;18.97;41.11;98643.69;1703720;84;20879;-69
2021/10/21 10:58:18;;;;;;;22.00;10.75;;;;;;;18.61;41.34;98638.60;1704218;84;20948;-68
2021/10/21 11:00:55;;;;;;;23.75;10.88;;;;;;;18.26;41.83;98642.00;1704707;83;20988;-70
2021/10/21 11:03:39;;;;;;;19.12;10.60;;;;;;;17.93;42.38;98644.37;1703368;84;21012;-69
2021/10/21 11:06:13;;;;;;;16.55;10.63;;;;;;;17.58;43.22;98633.80;1702558;84;21164;-68
2021/10/21 11:08:59;;;;;;;18.87;10.82;;;;;;;17.34;43.92;98628.23;1672466;84;21681;-70
2021/10/21 11:11:43;;;;;;;24.70;11.00;;;;;;;17.15;44.39;98629.86;1695962;84;20988;-68
2021/10/21 11:14:39;;;;;;;20.20;11.08;;;;;;;16.99;45.06;98619.60;1695525;83;21048;-69
2021/10/21 11:17:09;;;;;;;16.60;10.68;;;;;;;16.94;45.35;98611.03;1695797;84;20945;-69
2021/10/21 11:19:53;;;;;;;19.10;10.32;;;;;;;16.92;45.16;98603.69;1695694;84;21177;-68
2021/10/21 11:22:35;;;;;;;25.30;10.23;;;;;;;16.92;45.24;98603.69;1694677;84;21066;-69
2021/10/21 11:25:07;;;;;;;19.10;10.82;;;;;;;16.89;45.24;98598.11;1695600;84;21001;-69
2021/10/21 11:27:40;;;;;;;23.10;10.80;;;;;;;16.84;45.92;98589.55;1696080;84;20976;-68
2021/10/21 11:30:11;;;;;;;17.52;10.70;;;;;;;16.89;45.88;98589.20;1694651;84;22268;-67
2021/10/21 11:32:40;;;;;;;22.50;10.77;;;;;;;16.91;45.84;98585.47;1696812;84;21128;-69
2021/10/21 11:35:26;;;;;;;15.20;9.70;;;;;;;16.87;45.94;98584.63;1697749;84;20973;-68